sensor_id;sensor_type;location;lat;lon;timestamp;pressure;altitude;pressure_sealevel;temperature;humidity
15050;BME280;7622;42.724;23.250;2024-01-30T00:00:34;96532.59;;;0.02;100.00
15050;BME280;7622;42.724;23.250;2024-01-30T00:03:00;96538.94;;;-0.14;100.00
15050;BME280;7622;42.724;23.250;2024-01-30T00:05:27;96511.22;;;-0.32;100.00
15050;BME280;7622;42.724;23.250;2024-01-30T00:07:54;96536.50;;;-0.20;100.00
15050;BME280;7622;42.724;23.250;2024-01-30T00:10:20;96532.34;;;-0.24;100.00
15050;BME280;7622;42.724;23.250;2024-01-30T00:12:47;96533.06;;;-0.19;100.00
15050;BME280;7622;42.724;23.250;2024-01-30T00:15:14;96533.19;;;-0.24;100.00
15050;BME280;7622;42.724;23.250;2024-01-30T00:17:42;96530.50;;;-0.19;100.00
15050;BME280;7622;42.724;23.250;2024-01-30T00:20:09;96534.03;;;-0.23;100.00
15050;BME280;7622;42.724;23.250;2024-01-30T00:22:36;96537.25;;;-0.15;100.00
15050;BME280;7622;42.724;23.250;2024-01-30T00:25:03;96542.78;;;0.04;100.00
15050;BME280;7622;42.724;23.250;2024-01-30T00:27:30;96533.03;;;-0.16;100.00
15050;BME280;7622;42.724;23.250;2024-01-30T00:29:57;96537.56;;;-0.30;100.00
15050;BME280;7622;42.724;23.250;2024-01-30T00:32:24;96518.03;;;-0.31;100.00
15050;BME280;7622;42.724;23.250;2024-01-30T00:34:52;96499.56;;;-0.44;100.00
15050;BME280;7622;42.724;23.250;2024-01-30T00:37:19;96536.50;;;-0.20;100.00
15050;BME280;7622;42.724;23.250;2024-01-30T00:39:45;96536.16;;;-0.44;100.00
15050;BME280;7622;42.724;23.250;2024-01-30T00:42:12;96534.88;;;-0.24;100.00
15050;BME280;7622;42.724;23.250;2024-01-30T00:44:39;96533.16;;;-0.22;100.00
15050;BME280;7622;42.724;23.250;2024-01-30T00:47:05;96530.09;;;-0.40;100.00
15050;BME280;7622;42.724;23.250;2024-01-30T00:49:33;96532.03;;;-0.49;100.00
15050;BME280;7622;42.724;23.250;2024-01-30T00:52:02;96517.53;;;-0.49;100.00
15050;BME280;7622;42.724;23.250;2024-01-30T00:54:29;96535.19;;;-0.40;100.00
15050;BME280;7622;42.724;23.250;2024-01-30T00:56:55;96537.75;;;-0.40;100.00
15050;BME280;7622;42.724;23.250;2024-01-30T00:59:22;96531.03;;;-0.44;100.00
15050;BME280;7622;42.724;23.250;2024-01-30T01:01:49;96536.19;;;-0.47;100.00
15050;BME280;7622;42.724;23.250;2024-01-30T01:04:16;96522.53;;;-0.44;100.00
15050;BME280;7622;42.724;23.250;2024-01-30T01:06:43;96532.06;;;-0.52;100.00
15050;BME280;7622;42.724;23.250;2024-01-30T01:09:13;96539.63;;;-0.48;100.00
15050;BME280;7622;42.724;23.250;2024-01-30T01:11:42;96532.38;;;-0.27;100.00
15050;BME280;7622;42.724;23.250;2024-01-30T01:14:11;96539.53;;;-0.43;100.00
15050;BME280;7622;42.724;23.250;2024-01-30T01:16:41;96525.22;;;-0.50;100.00
15050;BME280;7622;42.724;23.250;2024-01-30T01:19:10;96526.41;;;-0.68;100.00
15050;BME280;7622;42.724;23.250;2024-01-30T01:21:40;96525.84;;;-0.82;100.00
15050;BME280;7622;42.724;23.250;2024-01-30T01:24:09;96525.97;;;-0.88;100.00
15050;BME280;7622;42.724;23.250;2024-01-30T01:26:37;96530.75;;;-0.71;100.00
15050;BME280;7622;42.724;23.250;2024-01-30T01:29:03;96530.50;;;-0.59;100.00
15050;BME280;7622;42.724;23.250;2024-01-30T01:31:35;96531.34;;;-0.59;100.00
15050;BME280;7622;42.724;23.250;2024-01-30T01:34:05;96531.31;;;-0.56;100.00
15050;BME280;7622;42.724;23.250;2024-01-30T01:36:32;96516.09;;;-0.62;100.00
15050;BME280;7622;42.724;23.250;2024-01-30T01:38:58;96542.38;;;-0.57;100.00
15050;BME280;7622;42.724;23.250;2024-01-30T01:41:29;96527.06;;;-0.57;100.00
15050;BME280;7622;42.724;23.250;2024-01-30T01:43:57;96531.47;;;-0.65;100.00
15050;BME280;7622;42.724;23.250;2024-01-30T01:46:26;96535.88;;;-0.73;100.00
15050;BME280;7622;42.724;23.250;2024-01-30T01:48:54;96531.47;;;-0.65;100.00
15050;BME280;7622;42.724;23.250;2024-01-30T01:51:22;96523.91;;;-0.69;100.00
15050;BME280;7622;42.724;23.250;2024-01-30T01:53:49;96522.97;;;-0.65;100.00
15050;BME280;7622;42.724;23.250;2024-01-30T01:56:16;96531.59;;;-0.71;100.00
15050;BME280;7622;42.724;23.250;2024-01-30T01:58:44;96535.19;;;-0.81;100.00
15050;BME280;7622;42.724;23.250;2024-01-30T02:01:14;96535.88;;;-0.73;100.00
15050;BME280;7622;42.724;23.250;2024-01-30T02:03:42;96536.94;;;-0.83;100.00
15050;BME280;7622;42.724;23.250;2024-01-30T02:06:09;96502.25;;;-0.93;100.00
15050;BME280;7622;42.724;23.250;2024-01-30T02:08:37;96539.03;;;-0.60;100.00
15050;BME280;7622;42.724;23.250;2024-01-30T02:11:04;96531.41;;;-0.62;100.00
15050;BME280;7622;42.724;23.250;2024-01-30T02:13:31;96537.41;;;-0.63;100.00
15050;BME280;7622;42.724;23.250;2024-01-30T02:15:57;96541.38;;;-0.50;100.00
15050;BME280;7622;42.724;23.250;2024-01-30T02:18:25;96542.41;;;-0.60;100.00
15050;BME280;7622;42.724;23.250;2024-01-30T02:20:54;96539.94;;;-0.63;100.00
15050;BME280;7622;42.724;23.250;2024-01-30T02:23:23;96533.91;;;-0.59;100.00
15050;BME280;7622;42.724;23.250;2024-01-30T02:25:50;96536.44;;;-0.59;100.00
15050;BME280;7622;42.724;23.250;2024-01-30T02:28:18;96537.84;;;-0.43;100.00
15050;BME280;7622;42.724;23.250;2024-01-30T02:30:46;96535.84;;;-0.28;100.00
15050;BME280;7622;42.724;23.250;2024-01-30T02:33:13;96521.00;;;-0.53;100.00
15050;BME280;7622;42.724;23.250;2024-01-30T02:35:39;96533.53;;;-0.41;100.00
15050;BME280;7622;42.724;23.250;2024-01-30T02:38:06;96528.34;;;-0.36;100.00
15050;BME280;7622;42.724;23.250;2024-01-30T02:40:34;96530.91;;;-0.37;100.00
15050;BME280;7622;42.724;23.250;2024-01-30T02:43:02;96514.09;;;-0.48;100.00
15050;BME280;7622;42.724;23.250;2024-01-30T02:45:29;96537.06;;;-0.48;100.00
15050;BME280;7622;42.724;23.250;2024-01-30T02:47:56;96532.72;;;-0.43;100.00
15050;BME280;7622;42.724;23.250;2024-01-30T02:50:23;96533.34;;;-0.33;100.00
15050;BME280;7622;42.724;23.250;2024-01-30T02:52:49;96532.47;;;-0.30;100.00
15050;BME280;7622;42.724;23.250;2024-01-30T02:55:16;96535.88;;;-0.30;100.00
15050;BME280;7622;42.724;23.250;2024-01-30T02:57:45;96539.25;;;-0.29;100.00
15050;BME280;7622;42.724;23.250;2024-01-30T03:00:13;96537.88;;;-0.46;100.00
15050;BME280;7622;42.724;23.250;2024-01-30T03:02:39;96533.75;;;-0.51;100.00
15050;BME280;7622;42.724;23.250;2024-01-30T03:05:07;96529.31;;;-0.42;100.00
15050;BME280;7622;42.724;23.250;2024-01-30T03:07:34;96530.97;;;-0.41;100.00
15050;BME280;7622;42.724;23.250;2024-01-30T03:10:01;96520.91;;;-0.48;100.00
15050;BME280;7622;42.724;23.250;2024-01-30T03:12:28;96528.53;;;-0.45;100.00
15050;BME280;7622;42.724;23.250;2024-01-30T03:14:56;96524.03;;;-0.34;100.00
15050;BME280;7622;42.724;23.250;2024-01-30T03:17:22;96519.28;;;-0.51;100.00
15050;BME280;7622;42.724;23.250;2024-01-30T03:19:50;96526.97;;;-0.52;100.00
15050;BME280;7622;42.724;23.250;2024-01-30T03:22:17;96530.31;;;-0.49;100.00
15050;BME280;7622;42.724;23.250;2024-01-30T03:24:43;96519.44;;;-0.58;100.00
15050;BME280;7622;42.724;23.250;2024-01-30T03:27:11;96519.47;;;-0.60;100.00
15050;BME280;7622;42.724;23.250;2024-01-30T03:29:37;96516.03;;;-0.59;100.00
15050;BME280;7622;42.724;23.250;2024-01-30T03:32:06;96521.00;;;-0.53;100.00
15050;BME280;7622;42.724;23.250;2024-01-30T03:34:33;96510.97;;;-0.62;100.00
15050;BME280;7622;42.724;23.250;2024-01-30T03:36:59;96516.72;;;-0.51;100.00
15050;BME280;7622;42.724;23.250;2024-01-30T03:39:26;96513.34;;;-0.51;100.00
15050;BME280;7622;42.724;23.250;2024-01-30T03:41:53;96507.53;;;-0.58;100.00
15050;BME280;7622;42.724;23.250;2024-01-30T03:44:19;96517.59;;;-0.52;100.00
15050;BME280;7622;42.724;23.250;2024-01-30T03:46:46;96512.63;;;-0.58;100.00
15050;BME280;7622;42.724;23.250;2024-01-30T03:49:14;96514.25;;;-0.55;100.00
15050;BME280;7622;42.724;23.250;2024-01-30T03:51:41;96503.25;;;-0.57;100.00
15050;BME280;7622;42.724;23.250;2024-01-30T03:54:07;96516.97;;;-0.63;100.00
15050;BME280;7622;42.724;23.250;2024-01-30T03:56:35;96509.63;;;-0.78;100.00
15050;BME280;7622;42.724;23.250;2024-01-30T03:59:01;96502.53;;;-0.64;100.00
15050;BME280;7622;42.724;23.250;2024-01-30T04:01:28;96508.47;;;-0.63;100.00
15050;BME280;7622;42.724;23.250;2024-01-30T04:03:55;96504.28;;;-0.66;100.00
15050;BME280;7622;42.724;23.250;2024-01-30T04:06:23;96504.97;;;-0.58;100.00
15050;BME280;7622;42.724;23.250;2024-01-30T04:08:50;96500.59;;;-0.53;100.00
15050;BME280;7622;42.724;23.250;2024-01-30T04:11:18;96506.41;;;-0.46;100.00
15050;BME280;7622;42.724;23.250;2024-01-30T04:13:45;96494.03;;;-0.63;100.00
15050;BME280;7622;42.724;23.250;2024-01-30T04:16:19;96495.84;;;-0.69;100.00
15050;BME280;7622;42.724;23.250;2024-01-30T04:18:46;96486.84;;;-0.87;100.00
15050;BME280;7622;42.724;23.250;2024-01-30T04:21:12;96501.09;;;-0.77;100.00
15050;BME280;7622;42.724;23.250;2024-01-30T04:23:42;96502.75;;;-0.76;100.00
15050;BME280;7622;42.724;23.250;2024-01-30T04:26:08;96459.28;;;-1.11;100.00
15050;BME280;7622;42.724;23.250;2024-01-30T04:28:35;96501.88;;;-0.73;100.00
15050;BME280;7622;42.724;23.250;2024-01-30T04:31:02;96512.19;;;-0.78;100.00
15050;BME280;7622;42.724;23.250;2024-01-30T04:33:29;96511.31;;;-0.77;100.00
15050;BME280;7622;42.724;23.250;2024-01-30T04:35:55;96509.91;;;-0.93;100.00
15050;BME280;7622;42.724;23.250;2024-01-30T04:38:22;96516.69;;;-0.92;100.00
15050;BME280;7622;42.724;23.250;2024-01-30T04:40:50;96510.75;;;-0.93;100.00
15050;BME280;7622;42.724;23.250;2024-01-30T04:43:17;96514.16;;;-0.92;100.00
15050;BME280;7622;42.724;23.250;2024-01-30T04:45:44;96504.78;;;-0.90;100.00
15050;BME280;7622;42.724;23.250;2024-01-30T04:48:11;96505.84;;;-1.03;100.00
15050;BME280;7622;42.724;23.250;2024-01-30T04:50:38;96521.84;;;-0.95;100.00
15050;BME280;7622;42.724;23.250;2024-01-30T04:53:05;96535.38;;;-0.90;100.00
15050;BME280;7622;42.724;23.250;2024-01-30T04:55:31;96537.13;;;-0.94;100.00
15050;BME280;7622;42.724;23.250;2024-01-30T04:57:59;96542.25;;;-0.95;100.00
15050;BME280;7622;42.724;23.250;2024-01-30T05:00:26;96534.47;;;-0.88;100.00
15050;BME280;7622;42.724;23.250;2024-01-30T05:02:54;96545.50;;;-0.87;100.00
15050;BME280;7622;42.724;23.250;2024-01-30T05:05:21;96543.94;;;-0.94;100.00
15050;BME280;7622;42.724;23.250;2024-01-30T05:07:48;96537.72;;;-0.81;100.00
15050;BME280;7622;42.724;23.250;2024-01-30T05:10:15;96541.25;;;-0.88;100.00
15050;BME280;7622;42.724;23.250;2024-01-30T05:12:42;96541.25;;;-0.87;100.00
15050;BME280;7622;42.724;23.250;2024-01-30T05:15:10;96547.16;;;-0.83;100.00
15050;BME280;7622;42.724;23.250;2024-01-30T05:17:37;96549.00;;;-0.91;100.00
15050;BME280;7622;42.724;23.250;2024-01-30T05:20:05;96543.22;;;-1.02;100.00
15050;BME280;7622;42.724;23.250;2024-01-30T05:22:32;96543.88;;;-0.91;100.00
15050;BME280;7622;42.724;23.250;2024-01-30T05:24:59;96536.19;;;-0.90;100.00
15050;BME280;7622;42.724;23.250;2024-01-30T05:27:26;96538.84;;;-0.94;100.00
15050;BME280;7622;42.724;23.250;2024-01-30T05:29:52;96545.66;;;-0.96;100.00
15050;BME280;7622;42.724;23.250;2024-01-30T05:32:20;96556.78;;;-0.99;100.00
15050;BME280;7622;42.724;23.250;2024-01-30T05:34:47;96556.69;;;-0.96;100.00
15050;BME280;7622;42.724;23.250;2024-01-30T05:37:15;96542.44;;;-1.04;100.00
15050;BME280;7622;42.724;23.250;2024-01-30T05:39:43;96544.09;;;-1.03;100.00
15050;BME280;7622;42.724;23.250;2024-01-30T05:42:10;96544.19;;;-1.09;100.00
15050;BME280;7622;42.724;23.250;2024-01-30T05:44:37;96548.47;;;-1.10;100.00
15050;BME280;7622;42.724;23.250;2024-01-30T05:47:03;96547.41;;;-0.98;100.00
15050;BME280;7622;42.724;23.250;2024-01-30T05:49:32;96554.41;;;-1.09;100.00
15050;BME280;7622;42.724;23.250;2024-01-30T05:51:58;96540.91;;;-1.14;100.00
15050;BME280;7622;42.724;23.250;2024-01-30T05:54:25;96540.69;;;-1.02;100.00
15050;BME280;7622;42.724;23.250;2024-01-30T05:56:52;96538.94;;;-1.00;100.00
15050;BME280;7622;42.724;23.250;2024-01-30T05:59:18;96541.38;;;-0.94;100.00
15050;BME280;7622;42.724;23.250;2024-01-30T06:01:46;96550.75;;;-0.96;100.00
15050;BME280;7622;42.724;23.250;2024-01-30T06:04:13;96549.03;;;-0.94;100.00
15050;BME280;7622;42.724;23.250;2024-01-30T06:06:41;96548.41;;;-1.07;100.00
15050;BME280;7622;42.724;23.250;2024-01-30T06:09:08;96544.16;;;-1.06;100.00
15050;BME280;7622;42.724;23.250;2024-01-30T06:11:35;96550.03;;;-1.03;100.00
15050;BME280;7622;42.724;23.250;2024-01-30T06:14:02;96554.13;;;-0.94;100.00
15050;BME280;7622;42.724;23.250;2024-01-30T06:16:28;96548.22;;;-0.96;100.00
15050;BME280;7622;42.724;23.250;2024-01-30T06:18:55;96543.94;;;-0.94;100.00
15050;BME280;7622;42.724;23.250;2024-01-30T06:21:23;96543.81;;;-0.88;100.00
15050;BME280;7622;42.724;23.250;2024-01-30T06:24:10;96550.47;;;-0.81;100.00
15050;BME280;7622;42.724;23.250;2024-01-30T06:26:37;96538.59;;;-0.82;100.00
15050;BME280;7622;42.724;23.250;2024-01-30T06:29:03;96540.16;;;-0.75;100.00
15050;BME280;7622;42.724;23.250;2024-01-30T06:31:30;96552.72;;;-0.64;100.00
15050;BME280;7622;42.724;23.250;2024-01-30T06:33:57;96548.66;;;-0.74;100.00
15050;BME280;7622;42.724;23.250;2024-01-30T06:36:23;96531.47;;;-0.65;100.00
15050;BME280;7622;42.724;23.250;2024-01-30T06:38:50;96553.03;;;-0.36;100.00
15050;BME280;7622;42.724;23.250;2024-01-30T06:41:19;96553.06;;;-0.40;100.00
15050;BME280;7622;42.724;23.250;2024-01-30T06:43:45;96554.59;;;-0.31;100.00
15050;BME280;7622;42.724;23.250;2024-01-30T06:46:12;96555.31;;;-0.24;100.00
15050;BME280;7622;42.724;23.250;2024-01-30T06:48:39;96552.72;;;-0.21;100.00
15050;BME280;7622;42.724;23.250;2024-01-30T06:51:06;96552.50;;;-0.12;100.00
15050;BME280;7622;42.724;23.250;2024-01-30T06:53:33;96554.13;;;-0.08;100.00
15050;BME280;7622;42.724;23.250;2024-01-30T06:56:00;96556.22;;;0.13;100.00
15050;BME280;7622;42.724;23.250;2024-01-30T06:58:29;96556.47;;;0.39;97.67
15050;BME280;7622;42.724;23.250;2024-01-30T07:00:56;96561.56;;;0.39;96.36
15050;BME280;7622;42.724;23.250;2024-01-30T07:03:22;96564.84;;;0.80;96.58
15050;BME280;7622;42.724;23.250;2024-01-30T07:05:49;96559.16;;;1.35;89.71
15050;BME280;7622;42.724;23.250;2024-01-30T07:08:16;96566.66;;;1.72;81.60
15050;BME280;7622;42.724;23.250;2024-01-30T07:10:43;96559.94;;;1.97;73.80
15050;BME280;7622;42.724;23.250;2024-01-30T07:13:10;96558.63;;;2.14;71.90
15050;BME280;7622;42.724;23.250;2024-01-30T07:15:38;96559.31;;;1.60;72.01
15050;BME280;7622;42.724;23.250;2024-01-30T07:18:05;96558.84;;;1.77;72.80
15050;BME280;7622;42.724;23.250;2024-01-30T07:20:33;96575.31;;;2.27;69.29
15050;BME280;7622;42.724;23.250;2024-01-30T07:23:01;96565.97;;;2.52;66.62
15050;BME280;7622;42.724;23.250;2024-01-30T07:25:28;96575.53;;;1.90;66.50
15050;BME280;7622;42.724;23.250;2024-01-30T07:27:55;96568.00;;;1.85;66.00
15050;BME280;7622;42.724;23.250;2024-01-30T07:30:24;96568.69;;;2.20;66.91
15050;BME280;7622;42.724;23.250;2024-01-30T07:32:55;96563.91;;;2.08;65.12
15050;BME280;7622;42.724;23.250;2024-01-30T07:35:23;96570.22;;;2.53;65.28
15050;BME280;7622;42.724;23.250;2024-01-30T07:37:49;96554.13;;;3.50;61.67
15050;BME280;7622;42.724;23.250;2024-01-30T07:40:17;96556.50;;;4.02;57.68
15050;BME280;7622;42.724;23.250;2024-01-30T07:42:44;96562.38;;;4.28;56.49
15050;BME280;7622;42.724;23.250;2024-01-30T07:45:10;96558.13;;;4.27;56.15
15050;BME280;7622;42.724;23.250;2024-01-30T07:47:37;96563.97;;;4.31;55.41
15050;BME280;7622;42.724;23.250;2024-01-30T07:50:07;96558.59;;;4.59;55.64
15050;BME280;7622;42.724;23.250;2024-01-30T07:52:34;96539.63;;;3.94;55.76
15050;BME280;7622;42.724;23.250;2024-01-30T07:55:00;96561.69;;;3.30;57.26
15050;BME280;7622;42.724;23.250;2024-01-30T07:57:29;96559.66;;;3.13;58.57
15050;BME280;7622;42.724;23.250;2024-01-30T07:59:56;96485.59;;;3.03;57.59
15050;BME280;7622;42.724;23.250;2024-01-30T08:02:23;96562.47;;;4.02;56.68
15050;BME280;7622;42.724;23.250;2024-01-30T08:04:50;96558.69;;;4.12;55.44
15050;BME280;7622;42.724;23.250;2024-01-30T08:07:18;96553.19;;;4.65;54.51
15050;BME280;7622;42.724;23.250;2024-01-30T08:09:47;96550.50;;;4.68;54.14
15050;BME280;7622;42.724;23.250;2024-01-30T08:12:14;96542.19;;;4.40;54.05
15050;BME280;7622;42.724;23.250;2024-01-30T08:14:41;96551.97;;;4.95;53.60
15050;BME280;7622;42.724;23.250;2024-01-30T08:17:07;96562.03;;;4.36;53.66
15050;BME280;7622;42.724;23.250;2024-01-30T08:19:34;96560.59;;;4.94;53.12
15050;BME280;7622;42.724;23.250;2024-01-30T08:22:01;96568.47;;;5.11;54.56
15050;BME280;7622;42.724;23.250;2024-01-30T08:24:29;96561.66;;;5.31;52.73
15050;BME280;7622;42.724;23.250;2024-01-30T08:26:55;96557.13;;;5.36;52.60
15050;BME280;7622;42.724;23.250;2024-01-30T08:29:23;96523.22;;;4.84;53.19
15050;BME280;7622;42.724;23.250;2024-01-30T08:31:50;96558.81;;;4.74;53.43
15050;BME280;7622;42.724;23.250;2024-01-30T08:34:17;96570.78;;;4.97;52.85
15050;BME280;7622;42.724;23.250;2024-01-30T08:36:43;96572.94;;;4.86;53.72
15050;BME280;7622;42.724;23.250;2024-01-30T08:39:10;96560.91;;;5.07;53.04
15050;BME280;7622;42.724;23.250;2024-01-30T08:41:38;96573.16;;;5.42;52.60
15050;BME280;7622;42.724;23.250;2024-01-30T08:44:05;96583.41;;;5.24;51.81
15050;BME280;7622;42.724;23.250;2024-01-30T08:46:32;96571.22;;;4.65;53.77
15050;BME280;7622;42.724;23.250;2024-01-30T08:48:59;96569.13;;;4.53;54.92
15050;BME280;7622;42.724;23.250;2024-01-30T08:51:26;96573.22;;;3.90;55.37
15050;BME280;7622;42.724;23.250;2024-01-30T08:53:52;96563.81;;;3.17;57.24
15050;BME280;7622;42.724;23.250;2024-01-30T08:56:19;96566.78;;;3.05;58.63
15050;BME280;7622;42.724;23.250;2024-01-30T08:58:47;96576.97;;;3.08;62.60
15050;BME280;7622;42.724;23.250;2024-01-30T09:01:14;96584.31;;;2.66;60.85
15050;BME280;7622;42.724;23.250;2024-01-30T09:03:41;96573.25;;;2.38;62.43
15050;BME280;7622;42.724;23.250;2024-01-30T09:06:11;96584.34;;;2.38;63.56
15050;BME280;7622;42.724;23.250;2024-01-30T09:08:38;96590.13;;;2.45;64.07
15050;BME280;7622;42.724;23.250;2024-01-30T09:11:08;96552.72;;;2.38;63.59
15050;BME280;7622;42.724;23.250;2024-01-30T09:13:35;96574.63;;;2.76;62.92
15050;BME280;7622;42.724;23.250;2024-01-30T09:16:04;96586.75;;;2.43;63.97
15050;BME280;7622;42.724;23.250;2024-01-30T09:18:31;96590.88;;;2.21;66.45
15050;BME280;7622;42.724;23.250;2024-01-30T09:20:57;96579.66;;;2.51;65.50
15050;BME280;7622;42.724;23.250;2024-01-30T09:23:24;96570.50;;;2.70;63.36
15050;BME280;7622;42.724;23.250;2024-01-30T09:25:51;96570.88;;;2.58;64.90
15050;BME280;7622;42.724;23.250;2024-01-30T09:28:18;96574.34;;;2.57;65.58
15050;BME280;7622;42.724;23.250;2024-01-30T09:30:45;96569.38;;;3.30;63.14
15050;BME280;7622;42.724;23.250;2024-01-30T09:33:13;96556.63;;;3.99;58.87
15050;BME280;7622;42.724;23.250;2024-01-30T09:35:39;96578.19;;;4.18;58.04
15050;BME280;7622;42.724;23.250;2024-01-30T09:38:06;96562.53;;;4.67;56.33
15050;BME280;7622;42.724;23.250;2024-01-30T09:40:33;96563.19;;;5.14;55.10
15050;BME280;7622;42.724;23.250;2024-01-30T09:43:00;96552.03;;;5.14;53.76
15050;BME280;7622;42.724;23.250;2024-01-30T09:45:27;96557.06;;;4.97;53.56
15050;BME280;7622;42.724;23.250;2024-01-30T09:47:53;96550.28;;;4.94;52.90
15050;BME280;7622;42.724;23.250;2024-01-30T09:50:22;96557.03;;;4.77;53.90
15050;BME280;7622;42.724;23.250;2024-01-30T09:52:49;96545.13;;;5.35;52.52
15050;BME280;7622;42.724;23.250;2024-01-30T09:55:17;96551.59;;;5.45;52.72
15050;BME280;7622;42.724;23.250;2024-01-30T09:57:44;96553.84;;;5.52;52.06
15050;BME280;7622;42.724;23.250;2024-01-30T10:00:12;96554.16;;;4.41;53.98
15050;BME280;7622;42.724;23.250;2024-01-30T10:02:40;96547.81;;;4.27;54.21
15050;BME280;7622;42.724;23.250;2024-01-30T10:05:08;96550.16;;;3.65;55.48
15050;BME280;7622;42.724;23.250;2024-01-30T10:07:36;96553.75;;;3.36;56.26
15050;BME280;7622;42.724;23.250;2024-01-30T10:10:04;96527.81;;;3.19;56.58
15050;BME280;7622;42.724;23.250;2024-01-30T10:12:31;96533.56;;;3.26;57.77
15050;BME280;7622;42.724;23.250;2024-01-30T10:14:59;96536.44;;;4.11;56.24
15050;BME280;7622;42.724;23.250;2024-01-30T10:17:25;96532.50;;;4.46;54.52
15050;BME280;7622;42.724;23.250;2024-01-30T10:19:52;96530.53;;;4.95;52.96
15050;BME280;7622;42.724;23.250;2024-01-30T10:22:19;96537.53;;;5.52;52.34
15050;BME280;7622;42.724;23.250;2024-01-30T10:24:48;96532.28;;;5.14;52.26
15050;BME280;7622;42.724;23.250;2024-01-30T10:27:15;96540.69;;;5.98;51.21
15050;BME280;7622;42.724;23.250;2024-01-30T10:29:41;96531.88;;;6.02;51.29
15050;BME280;7622;42.724;23.250;2024-01-30T10:32:08;96506.25;;;5.99;50.02
15050;BME280;7622;42.724;23.250;2024-01-30T10:34:35;96526.88;;;5.99;50.21
15050;BME280;7622;42.724;23.250;2024-01-30T10:37:08;96538.25;;;6.68;48.66
15050;BME280;7622;42.724;23.250;2024-01-30T10:39:38;96548.88;;;5.87;50.10
15050;BME280;7622;42.724;23.250;2024-01-30T10:42:11;96533.25;;;6.46;49.18
15050;BME280;7622;42.724;23.250;2024-01-30T10:44:44;96523.59;;;6.68;48.49
15050;BME280;7622;42.724;23.250;2024-01-30T10:47:19;96527.81;;;6.52;48.54
15050;BME280;7622;42.724;23.250;2024-01-30T10:49:47;96464.28;;;6.14;48.89
15050;BME280;7622;42.724;23.250;2024-01-30T10:52:15;96525.19;;;6.88;48.17
15050;BME280;7622;42.724;23.250;2024-01-30T10:54:44;96523.22;;;6.93;47.95
15050;BME280;7622;42.724;23.250;2024-01-30T10:57:14;96512.19;;;6.55;48.30
15050;BME280;7622;42.724;23.250;2024-01-30T10:59:43;96516.09;;;6.45;48.30
15050;BME280;7622;42.724;23.250;2024-01-30T11:02:10;96512.91;;;5.65;49.93
15050;BME280;7622;42.724;23.250;2024-01-30T11:04:38;96510.97;;;6.26;49.51
15050;BME280;7622;42.724;23.250;2024-01-30T11:07:14;96515.50;;;6.03;49.79
15050;BME280;7622;42.724;23.250;2024-01-30T11:09:48;96500.69;;;6.08;49.82
15050;BME280;7622;42.724;23.250;2024-01-30T11:12:18;96509.13;;;5.72;50.30
15050;BME280;7622;42.724;23.250;2024-01-30T11:14:47;96501.25;;;5.75;49.95
15050;BME280;7622;42.724;23.250;2024-01-30T11:17:14;96471.75;;;6.37;49.50
15050;BME280;7622;42.724;23.250;2024-01-30T11:19:41;96491.28;;;6.60;49.32
15050;BME280;7622;42.724;23.250;2024-01-30T11:22:08;96496.28;;;6.46;49.36
15050;BME280;7622;42.724;23.250;2024-01-30T11:24:39;96498.53;;;5.78;50.21
15050;BME280;7622;42.724;23.250;2024-01-30T11:27:08;96485.38;;;5.27;51.54
15050;BME280;7622;42.724;23.250;2024-01-30T11:29:37;96491.19;;;4.91;52.32
15050;BME280;7622;42.724;23.250;2024-01-30T11:32:05;96483.28;;;4.75;53.36
15050;BME280;7622;42.724;23.250;2024-01-30T11:34:32;96483.22;;;4.77;52.77
15050;BME280;7622;42.724;23.250;2024-01-30T11:37:03;96487.06;;;4.87;52.94
15050;BME280;7622;42.724;23.250;2024-01-30T11:39:35;96489.38;;;5.13;52.41
15050;BME280;7622;42.724;23.250;2024-01-30T11:42:03;96487.94;;;5.84;51.73
15050;BME280;7622;42.724;23.250;2024-01-30T11:44:31;96491.72;;;5.77;51.68
15050;BME280;7622;42.724;23.250;2024-01-30T11:46:59;96480.13;;;5.87;51.41
15050;BME280;7622;42.724;23.250;2024-01-30T11:49:26;96493.03;;;5.28;51.53
15050;BME280;7622;42.724;23.250;2024-01-30T11:51:53;96484.22;;;4.73;53.05
15050;BME280;7622;42.724;23.250;2024-01-30T11:54:20;96480.00;;;4.50;54.22
15050;BME280;7622;42.724;23.250;2024-01-30T11:56:47;96483.97;;;4.79;54.03
15050;BME280;7622;42.724;23.250;2024-01-30T11:59:14;96477.28;;;5.15;53.73
15050;BME280;7622;42.724;23.250;2024-01-30T12:01:40;96479.34;;;5.07;53.08
15050;BME280;7622;42.724;23.250;2024-01-30T12:04:09;96467.44;;;5.44;52.38
15050;BME280;7622;42.724;23.250;2024-01-30T12:06:36;96469.34;;;5.20;52.67
15050;BME280;7622;42.724;23.250;2024-01-30T12:09:03;96456.06;;;4.90;53.56
15050;BME280;7622;42.724;23.250;2024-01-30T12:11:30;96441.75;;;5.03;52.99
15050;BME280;7622;42.724;23.250;2024-01-30T12:13:57;96419.47;;;5.02;53.40
15050;BME280;7622;42.724;23.250;2024-01-30T12:16:24;96443.47;;;5.42;52.20
15050;BME280;7622;42.724;23.250;2024-01-30T12:18:59;96435.84;;;4.61;53.61
15050;BME280;7622;42.724;23.250;2024-01-30T12:21:28;96431.88;;;4.32;54.24
15050;BME280;7622;42.724;23.250;2024-01-30T12:23:55;96443.56;;;4.61;54.28
15050;BME280;7622;42.724;23.250;2024-01-30T12:26:23;96442.41;;;4.48;54.53
15050;BME280;7622;42.724;23.250;2024-01-30T12:28:51;96444.22;;;4.24;55.26
15050;BME280;7622;42.724;23.250;2024-01-30T12:31:25;96433.69;;;4.08;55.54
15050;BME280;7622;42.724;23.250;2024-01-30T12:33:52;96441.97;;;4.36;55.13
15050;BME280;7622;42.724;23.250;2024-01-30T12:36:19;96439.59;;;4.32;55.40
15050;BME280;7622;42.724;23.250;2024-01-30T12:38:47;96422.25;;;4.15;55.52
15050;BME280;7622;42.724;23.250;2024-01-30T12:41:14;96434.75;;;4.24;54.96
15050;BME280;7622;42.724;23.250;2024-01-30T12:43:41;96425.75;;;4.14;55.71
15050;BME280;7622;42.724;23.250;2024-01-30T12:46:08;96418.84;;;3.49;57.16
15050;BME280;7622;42.724;23.250;2024-01-30T12:48:35;96422.38;;;3.24;58.32
15050;BME280;7622;42.724;23.250;2024-01-30T12:51:01;96425.78;;;3.24;58.61
15050;BME280;7622;42.724;23.250;2024-01-30T12:53:28;96411.03;;;3.52;58.38
15050;BME280;7622;42.724;23.250;2024-01-30T12:55:56;96414.41;;;3.31;58.97
15050;BME280;7622;42.724;23.250;2024-01-30T12:58:23;96418.97;;;3.23;58.99
15050;BME280;7622;42.724;23.250;2024-01-30T13:00:50;96402.56;;;3.27;60.11